sensor_id;sensor_type;location;lat;lon;timestamp;pressure;altitude;pressure_sealevel;temperature;humidity
692;BME280;70475;50.084;8.576;2023-09-30T00:00:27;101475.19;;;15.91;97.53
692;BME280;70475;50.084;8.576;2023-09-30T00:02:55;101477.88;;;15.91;96.52
692;BME280;70475;50.084;8.576;2023-09-30T00:05:24;101484.53;;;15.95;95.47
692;BME280;70475;50.084;8.576;2023-09-30T00:07:51;101501.25;;;15.97;95.76
692;BME280;70475;50.084;8.576;2023-09-30T00:10:19;101500.25;;;15.98;95.50
692;BME280;70475;50.084;8.576;2023-09-30T00:12:46;101502.50;;;15.95;95.16
692;BME280;70475;50.084;8.576;2023-09-30T00:15:14;101519.84;;;15.92;95.29
692;BME280;70475;50.084;8.576;2023-09-30T00:17:42;101509.91;;;15.93;95.91
692;BME280;70475;50.084;8.576;2023-09-30T00:20:10;101515.28;;;15.93;95.67
692;BME280;70475;50.084;8.576;2023-09-30T00:22:39;101519.41;;;15.89;96.65
692;BME280;70475;50.084;8.576;2023-09-30T00:25:07;101522.75;;;15.97;95.27
692;BME280;70475;50.084;8.576;2023-09-30T00:27:36;101515.00;;;16.09;94.65
692;BME280;70475;50.084;8.576;2023-09-30T00:30:06;101529.41;;;16.01;95.31
692;BME280;70475;50.084;8.576;2023-09-30T00:32:33;101517.63;;;16.02;95.10
692;BME280;70475;50.084;8.576;2023-09-30T00:35:01;101531.91;;;16.03;95.54
692;BME280;70475;50.084;8.576;2023-09-30T00:37:29;101528.13;;;15.97;95.46
692;BME280;70475;50.084;8.576;2023-09-30T00:39:58;101533.91;;;15.94;95.93
692;BME280;70475;50.084;8.576;2023-09-30T00:42:25;101536.38;;;15.96;96.25
692;BME280;70475;50.084;8.576;2023-09-30T00:44:53;101538.69;;;15.99;95.54
692;BME280;70475;50.084;8.576;2023-09-30T00:47:21;101538.09;;;16.03;94.68
692;BME280;70475;50.084;8.576;2023-09-30T00:49:49;101546.56;;;16.00;94.97
692;BME280;70475;50.084;8.576;2023-09-30T00:52:16;101539.00;;;16.10;93.43
692;BME280;70475;50.084;8.576;2023-09-30T00:54:45;101540.16;;;16.01;93.47
692;BME280;70475;50.084;8.576;2023-09-30T00:57:15;101542.97;;;15.87;93.46
692;BME280;70475;50.084;8.576;2023-09-30T00:59:43;101540.13;;;15.95;93.11
692;BME280;70475;50.084;8.576;2023-09-30T01:02:11;101539.06;;;15.89;93.21
692;BME280;70475;50.084;8.576;2023-09-30T01:04:38;101536.75;;;15.86;92.21
692;BME280;70475;50.084;8.576;2023-09-30T01:07:07;101538.66;;;15.92;92.08
692;BME280;70475;50.084;8.576;2023-09-30T01:09:35;101545.84;;;15.85;92.43
692;BME280;70475;50.084;8.576;2023-09-30T01:12:04;101543.59;;;15.89;92.26
692;BME280;70475;50.084;8.576;2023-09-30T01:14:34;101544.44;;;15.89;92.32
692;BME280;70475;50.084;8.576;2023-09-30T01:17:04;101546.72;;;15.92;92.57
692;BME280;70475;50.084;8.576;2023-09-30T01:19:35;101551.06;;;15.93;92.16
692;BME280;70475;50.084;8.576;2023-09-30T01:22:04;101553.09;;;15.91;93.04
692;BME280;70475;50.084;8.576;2023-09-30T01:24:38;101559.91;;;15.87;93.42
692;BME280;70475;50.084;8.576;2023-09-30T01:27:06;101557.22;;;15.87;93.50
692;BME280;70475;50.084;8.576;2023-09-30T01:29:34;101568.63;;;15.96;93.14
692;BME280;70475;50.084;8.576;2023-09-30T01:32:05;101564.66;;;15.85;94.22
692;BME280;70475;50.084;8.576;2023-09-30T01:34:34;101569.13;;;15.78;94.96
692;BME280;70475;50.084;8.576;2023-09-30T01:37:03;101568.34;;;15.84;95.18
692;BME280;70475;50.084;8.576;2023-09-30T01:39:31;101570.41;;;15.82;95.71
692;BME280;70475;50.084;8.576;2023-09-30T01:42:00;101565.56;;;15.71;96.62
692;BME280;70475;50.084;8.576;2023-09-30T01:44:28;101563.53;;;15.73;96.39
692;BME280;70475;50.084;8.576;2023-09-30T01:46:55;101553.50;;;15.61;97.30
692;BME280;70475;50.084;8.576;2023-09-30T01:49:23;101550.78;;;15.54;98.08
692;BME280;70475;50.084;8.576;2023-09-30T01:51:52;101547.63;;;15.51;97.87
692;BME280;70475;50.084;8.576;2023-09-30T01:54:21;101547.81;;;15.49;98.92
692;BME280;70475;50.084;8.576;2023-09-30T01:56:49;101546.38;;;15.47;98.92
692;BME280;70475;50.084;8.576;2023-09-30T01:59:17;101550.38;;;15.36;100.00
692;BME280;70475;50.084;8.576;2023-09-30T02:01:44;101544.09;;;15.29;100.00
692;BME280;70475;50.084;8.576;2023-09-30T02:04:13;101542.81;;;15.25;100.00
692;BME280;70475;50.084;8.576;2023-09-30T02:06:41;101550.44;;;15.22;100.00
692;BME280;70475;50.084;8.576;2023-09-30T02:09:09;101559.06;;;15.17;100.00
692;BME280;70475;50.084;8.576;2023-09-30T02:11:38;101560.31;;;15.00;100.00
692;BME280;70475;50.084;8.576;2023-09-30T02:14:07;101558.25;;;14.81;100.00
692;BME280;70475;50.084;8.576;2023-09-30T02:16:35;101562.16;;;14.64;100.00
692;BME280;70475;50.084;8.576;2023-09-30T02:19:03;101567.19;;;14.53;100.00
692;BME280;70475;50.084;8.576;2023-09-30T02:21:31;101576.53;;;14.42;100.00
692;BME280;70475;50.084;8.576;2023-09-30T02:23:58;101574.13;;;14.32;100.00
692;BME280;70475;50.084;8.576;2023-09-30T02:26:26;101580.69;;;14.30;100.00
692;BME280;70475;50.084;8.576;2023-09-30T02:28:56;101579.75;;;14.23;100.00
692;BME280;70475;50.084;8.576;2023-09-30T02:31:24;101572.97;;;14.12;100.00
692;BME280;70475;50.084;8.576;2023-09-30T02:33:52;101576.75;;;14.03;100.00
692;BME280;70475;50.084;8.576;2023-09-30T02:36:19;101571.28;;;13.97;100.00
692;BME280;70475;50.084;8.576;2023-09-30T02:38:47;101575.72;;;13.90;100.00
692;BME280;70475;50.084;8.576;2023-09-30T02:41:15;101577.38;;;13.91;100.00
692;BME280;70475;50.084;8.576;2023-09-30T02:43:43;101572.38;;;13.88;100.00
692;BME280;70475;50.084;8.576;2023-09-30T02:46:12;101568.41;;;13.84;100.00
692;BME280;70475;50.084;8.576;2023-09-30T02:48:40;101571.81;;;13.78;100.00
692;BME280;70475;50.084;8.576;2023-09-30T02:51:09;101581.22;;;13.74;100.00
692;BME280;70475;50.084;8.576;2023-09-30T02:53:37;101596.75;;;13.78;100.00
692;BME280;70475;50.084;8.576;2023-09-30T02:56:05;101606.16;;;13.74;100.00
692;BME280;70475;50.084;8.576;2023-09-30T02:58:33;101606.34;;;13.73;100.00
692;BME280;70475;50.084;8.576;2023-09-30T03:01:00;101601.00;;;13.73;100.00
692;BME280;70475;50.084;8.576;2023-09-30T03:03:28;101608.22;;;13.87;100.00
692;BME280;70475;50.084;8.576;2023-09-30T03:05:57;101606.19;;;13.89;100.00
692;BME280;70475;50.084;8.576;2023-09-30T03:08:26;101601.22;;;14.00;100.00
692;BME280;70475;50.084;8.576;2023-09-30T03:10:54;101597.16;;;14.19;100.00
692;BME280;70475;50.084;8.576;2023-09-30T03:13:21;101595.69;;;14.16;100.00
692;BME280;70475;50.084;8.576;2023-09-30T03:15:49;101589.03;;;13.98;100.00
692;BME280;70475;50.084;8.576;2023-09-30T03:18:18;101581.91;;;13.76;100.00
692;BME280;70475;50.084;8.576;2023-09-30T03:20:51;101564.97;;;13.61;100.00
692;BME280;70475;50.084;8.576;2023-09-30T03:23:22;101572.59;;;13.49;100.00
692;BME280;70475;50.084;8.576;2023-09-30T03:25:55;101593.22;;;13.41;100.00
692;BME280;70475;50.084;8.576;2023-09-30T03:28:23;101594.13;;;13.33;100.00
692;BME280;70475;50.084;8.576;2023-09-30T03:30:51;101593.81;;;13.28;100.00
692;BME280;70475;50.084;8.576;2023-09-30T03:33:19;101598.41;;;13.20;100.00
692;BME280;70475;50.084;8.576;2023-09-30T03:35:46;101608.13;;;13.13;100.00
692;BME280;70475;50.084;8.576;2023-09-30T03:38:15;101619.16;;;13.10;100.00
692;BME280;70475;50.084;8.576;2023-09-30T03:40:44;101623.53;;;13.11;100.00
692;BME280;70475;50.084;8.576;2023-09-30T03:43:17;101622.34;;;13.13;100.00
692;BME280;70475;50.084;8.576;2023-09-30T03:45:45;101611.81;;;13.12;100.00
692;BME280;70475;50.084;8.576;2023-09-30T03:48:12;101620.50;;;13.14;100.00
692;BME280;70475;50.084;8.576;2023-09-30T03:50:40;101636.13;;;13.02;100.00
692;BME280;70475;50.084;8.576;2023-09-30T03:53:07;101641.63;;;13.01;100.00
692;BME280;70475;50.084;8.576;2023-09-30T03:55:37;101637.78;;;12.95;100.00
692;BME280;70475;50.084;8.576;2023-09-30T03:58:04;101639.13;;;12.99;100.00
692;BME280;70475;50.084;8.576;2023-09-30T04:00:32;101644.31;;;13.01;100.00
692;BME280;70475;50.084;8.576;2023-09-30T04:03:00;101657.16;;;13.05;100.00
692;BME280;70475;50.084;8.576;2023-09-30T04:05:29;101646.28;;;13.07;100.00
692;BME280;70475;50.084;8.576;2023-09-30T04:08:00;101627.84;;;13.12;100.00
692;BME280;70475;50.084;8.576;2023-09-30T04:10:28;101618.00;;;13.12;100.00
692;BME280;70475;50.084;8.576;2023-09-30T04:12:57;101625.84;;;13.14;100.00
692;BME280;70475;50.084;8.576;2023-09-30T04:15:26;101630.00;;;13.16;100.00
692;BME280;70475;50.084;8.576;2023-09-30T04:17:53;101628.81;;;13.19;100.00
692;BME280;70475;50.084;8.576;2023-09-30T04:20:21;101623.63;;;13.17;100.00
692;BME280;70475;50.084;8.576;2023-09-30T04:22:53;101633.34;;;13.18;100.00
692;BME280;70475;50.084;8.576;2023-09-30T04:25:24;101634.47;;;13.24;100.00
692;BME280;70475;50.084;8.576;2023-09-30T04:27:52;101641.13;;;13.28;100.00
692;BME280;70475;50.084;8.576;2023-09-30T04:30:21;101645.13;;;13.32;100.00
692;BME280;70475;50.084;8.576;2023-09-30T04:32:49;101636.72;;;13.35;100.00
692;BME280;70475;50.084;8.576;2023-09-30T04:35:17;101653.00;;;13.33;100.00
692;BME280;70475;50.084;8.576;2023-09-30T04:37:45;101652.25;;;13.39;100.00
692;BME280;70475;50.084;8.576;2023-09-30T04:40:12;101642.88;;;13.43;100.00
692;BME280;70475;50.084;8.576;2023-09-30T04:42:44;101645.03;;;13.48;100.00
692;BME280;70475;50.084;8.576;2023-09-30T04:45:13;101646.00;;;13.47;100.00
692;BME280;70475;50.084;8.576;2023-09-30T04:47:44;101630.09;;;13.53;100.00
692;BME280;70475;50.084;8.576;2023-09-30T04:50:12;101634.91;;;13.58;100.00
692;BME280;70475;50.084;8.576;2023-09-30T04:52:43;101640.66;;;13.47;100.00
692;BME280;70475;50.084;8.576;2023-09-30T04:55:11;101652.25;;;13.39;100.00
692;BME280;70475;50.084;8.576;2023-09-30T04:57:42;101655.84;;;13.32;100.00
692;BME280;70475;50.084;8.576;2023-09-30T05:00:12;101644.75;;;13.35;100.00
692;BME280;70475;50.084;8.576;2023-09-30T05:02:40;101649.13;;;13.36;100.00
692;BME280;70475;50.084;8.576;2023-09-30T05:05:12;101649.22;;;13.42;100.00
692;BME280;70475;50.084;8.576;2023-09-30T05:07:41;101647.97;;;13.53;100.00
692;BME280;70475;50.084;8.576;2023-09-30T05:10:09;101656.19;;;13.74;100.00
692;BME280;70475;50.084;8.576;2023-09-30T05:12:39;101651.72;;;13.89;100.00
692;BME280;70475;50.084;8.576;2023-09-30T05:15:12;101653.09;;;13.85;100.00
692;BME280;70475;50.084;8.576;2023-09-30T05:17:42;101662.66;;;14.02;100.00
692;BME280;70475;50.084;8.576;2023-09-30T05:20:12;101667.28;;;14.08;100.00
692;BME280;70475;50.084;8.576;2023-09-30T05:22:43;101654.63;;;14.02;100.00
692;BME280;70475;50.084;8.576;2023-09-30T05:25:13;101648.38;;;13.87;100.00
692;BME280;70475;50.084;8.576;2023-09-30T05:27:42;101644.19;;;13.70;100.00
692;BME280;70475;50.084;8.576;2023-09-30T05:30:10;101640.63;;;13.55;100.00
692;BME280;70475;50.084;8.576;2023-09-30T05:32:38;101644.00;;;13.49;100.00
692;BME280;70475;50.084;8.576;2023-09-30T05:35:06;101642.41;;;13.40;100.00
692;BME280;70475;50.084;8.576;2023-09-30T05:37:40;101644.28;;;13.31;100.00
692;BME280;70475;50.084;8.576;2023-09-30T05:40:09;101659.94;;;13.12;100.00
692;BME280;70475;50.084;8.576;2023-09-30T05:42:46;101668.03;;;13.04;100.00
692;BME280;70475;50.084;8.576;2023-09-30T05:45:14;101678.06;;;12.94;100.00
692;BME280;70475;50.084;8.576;2023-09-30T05:47:42;101678.41;;;12.91;100.00
692;BME280;70475;50.084;8.576;2023-09-30T05:50:10;101688.97;;;12.84;100.00
692;BME280;70475;50.084;8.576;2023-09-30T05:52:43;101690.16;;;12.82;100.00
692;BME280;70475;50.084;8.576;2023-09-30T05:55:11;101681.81;;;12.77;100.00
692;BME280;70475;50.084;8.576;2023-09-30T05:57:38;101677.50;;;12.68;100.00
692;BME280;70475;50.084;8.576;2023-09-30T06:00:07;101683.84;;;12.67;100.00
692;BME280;70475;50.084;8.576;2023-09-30T06:02:41;101680.50;;;12.65;100.00
692;BME280;70475;50.084;8.576;2023-09-30T06:05:10;101679.53;;;12.58;100.00
692;BME280;70475;50.084;8.576;2023-09-30T06:07:38;101686.03;;;12.63;100.00
692;BME280;70475;50.084;8.576;2023-09-30T06:10:09;101679.53;;;12.58;100.00
692;BME280;70475;50.084;8.576;2023-09-30T06:12:37;101691.88;;;12.59;100.00
692;BME280;70475;50.084;8.576;2023-09-30T06:15:06;101696.03;;;12.61;100.00
692;BME280;70475;50.084;8.576;2023-09-30T06:17:33;101704.06;;;12.69;100.00
692;BME280;70475;50.084;8.576;2023-09-30T06:20:04;101701.53;;;12.76;100.00
692;BME280;70475;50.084;8.576;2023-09-30T06:22:36;101708.88;;;12.82;100.00
692;BME280;70475;50.084;8.576;2023-09-30T06:25:04;101713.19;;;12.83;100.00
692;BME280;70475;50.084;8.576;2023-09-30T06:27:33;101706.31;;;12.88;100.00
692;BME280;70475;50.084;8.576;2023-09-30T06:30:01;101725.19;;;12.95;100.00
692;BME280;70475;50.084;8.576;2023-09-30T06:32:28;101709.75;;;13.13;100.00
692;BME280;70475;50.084;8.576;2023-09-30T06:34:56;101702.03;;;13.26;100.00
692;BME280;70475;50.084;8.576;2023-09-30T06:37:25;101702.91;;;13.18;100.00
692;BME280;70475;50.084;8.576;2023-09-30T06:39:53;101711.63;;;13.12;100.00
692;BME280;70475;50.084;8.576;2023-09-30T06:42:20;101716.13;;;13.12;100.00
692;BME280;70475;50.084;8.576;2023-09-30T06:44:49;101708.09;;;13.12;100.00
692;BME280;70475;50.084;8.576;2023-09-30T06:47:19;101705.56;;;13.18;100.00
692;BME280;70475;50.084;8.576;2023-09-30T06:49:47;101709.22;;;13.25;100.00
692;BME280;70475;50.084;8.576;2023-09-30T06:52:15;101715.69;;;13.31;100.00
692;BME280;70475;50.084;8.576;2023-09-30T06:54:42;101721.03;;;13.31;100.00
692;BME280;70475;50.084;8.576;2023-09-30T06:57:10;101720.84;;;13.40;100.00
692;BME280;70475;50.084;8.576;2023-09-30T06:59:37;101726.94;;;13.57;100.00
692;BME280;70475;50.084;8.576;2023-09-30T07:02:07;101727.88;;;13.64;100.00
692;BME280;70475;50.084;8.576;2023-09-30T07:04:35;101739.03;;;13.98;100.00
692;BME280;70475;50.084;8.576;2023-09-30T07:07:03;101739.06;;;14.12;100.00
692;BME280;70475;50.084;8.576;2023-09-30T07:09:31;101734.66;;;14.19;100.00
692;BME280;70475;50.084;8.576;2023-09-30T07:11:58;101739.53;;;14.16;100.00
692;BME280;70475;50.084;8.576;2023-09-30T07:14:26;101735.38;;;14.13;100.00
692;BME280;70475;50.084;8.576;2023-09-30T07:16:54;101733.59;;;14.28;100.00
692;BME280;70475;50.084;8.576;2023-09-30T07:19:23;101739.63;;;14.08;100.00
692;BME280;70475;50.084;8.576;2023-09-30T07:21:51;101727.25;;;14.07;100.00
692;BME280;70475;50.084;8.576;2023-09-30T07:24:30;101727.94;;;14.23;100.00
692;BME280;70475;50.084;8.576;2023-09-30T07:26:58;101726.81;;;14.40;100.00
692;BME280;70475;50.084;8.576;2023-09-30T07:29:28;101729.41;;;14.63;99.92
692;BME280;70475;50.084;8.576;2023-09-30T07:31:56;101741.69;;;14.43;100.00
692;BME280;70475;50.084;8.576;2023-09-30T07:34:25;101748.94;;;14.57;100.00
692;BME280;70475;50.084;8.576;2023-09-30T07:36:52;101744.38;;;14.72;98.29
692;BME280;70475;50.084;8.576;2023-09-30T07:39:21;101753.03;;;14.82;97.68
692;BME280;70475;50.084;8.576;2023-09-30T07:41:49;101756.25;;;14.92;95.07
692;BME280;70475;50.084;8.576;2023-09-30T07:44:17;101738.22;;;15.01;95.39
692;BME280;70475;50.084;8.576;2023-09-30T07:46:45;101731.53;;;15.11;94.58
692;BME280;70475;50.084;8.576;2023-09-30T07:49:13;101727.75;;;15.20;93.70
692;BME280;70475;50.084;8.576;2023-09-30T07:51:43;101723.94;;;15.00;93.64
692;BME280;70475;50.084;8.576;2023-09-30T07:54:10;101722.63;;;15.25;92.99
692;BME280;70475;50.084;8.576;2023-09-30T07:56:56;101731.53;;;15.26;93.17
692;BME280;70475;50.084;8.576;2023-09-30T07:59:24;101731.53;;;15.40;92.60
692;BME280;70475;50.084;8.576;2023-09-30T08:01:51;101731.94;;;15.58;89.55
692;BME280;70475;50.084;8.576;2023-09-30T08:04:19;101734.81;;;15.57;88.86
692;BME280;70475;50.084;8.576;2023-09-30T08:06:49;101738.25;;;15.51;89.15
692;BME280;70475;50.084;8.576;2023-09-30T08:09:17;101727.53;;;15.51;88.72
692;BME280;70475;50.084;8.576;2023-09-30T08:11:45;101720.50;;;15.50;87.48
692;BME280;70475;50.084;8.576;2023-09-30T08:14:13;101727.22;;;15.60;88.52
692;BME280;70475;50.084;8.576;2023-09-30T08:16:42;101733.56;;;15.74;88.96
692;BME280;70475;50.084;8.576;2023-09-30T08:19:10;101733.59;;;15.59;89.57
692;BME280;70475;50.084;8.576;2023-09-30T08:21:38;101737.91;;;15.75;86.28
692;BME280;70475;50.084;8.576;2023-09-30T08:24:07;101751.03;;;15.84;86.90
692;BME280;70475;50.084;8.576;2023-09-30T08:26:35;101744.06;;;15.69;88.83
692;BME280;70475;50.084;8.576;2023-09-30T08:29:03;101743.03;;;15.91;86.44
692;BME280;70475;50.084;8.576;2023-09-30T08:31:32;101740.22;;;15.99;85.23
692;BME280;70475;50.084;8.576;2023-09-30T08:34:00;101746.25;;;16.01;86.05
692;BME280;70475;50.084;8.576;2023-09-30T08:36:30;101756.72;;;15.96;86.42
692;BME280;70475;50.084;8.576;2023-09-30T08:38:58;101754.75;;;16.04;85.71
692;BME280;70475;50.084;8.576;2023-09-30T08:41:32;101765.34;;;15.91;87.41
692;BME280;70475;50.084;8.576;2023-09-30T08:44:00;101774.16;;;16.00;87.19
692;BME280;70475;50.084;8.576;2023-09-30T08:46:31;101761.72;;;16.20;84.40
692;BME280;70475;50.084;8.576;2023-09-30T08:49:01;101770.44;;;16.22;84.70
692;BME280;70475;50.084;8.576;2023-09-30T08:51:29;101767.19;;;16.33;84.90
692;BME280;70475;50.084;8.576;2023-09-30T08:53:57;101772.47;;;16.20;84.51
692;BME280;70475;50.084;8.576;2023-09-30T08:56:28;101770.34;;;16.15;84.34
692;BME280;70475;50.084;8.576;2023-09-30T08:58:59;101774.38;;;16.05;84.69
692;BME280;70475;50.084;8.576;2023-09-30T09:01:27;101766.25;;;16.19;83.71
692;BME280;70475;50.084;8.576;2023-09-30T09:03:55;101764.59;;;16.18;84.75
692;BME280;70475;50.084;8.576;2023-09-30T09:06:25;101775.34;;;15.97;86.60
692;BME280;70475;50.084;8.576;2023-09-30T09:08:53;101787.66;;;15.71;86.71
692;BME280;70475;50.084;8.576;2023-09-30T09:11:23;101781.19;;;15.65;86.52
692;BME280;70475;50.084;8.576;2023-09-30T09:13:52;101782.97;;;15.58;87.69
692;BME280;70475;50.084;8.576;2023-09-30T09:16:24;101795.13;;;15.54;88.22
692;BME280;70475;50.084;8.576;2023-09-30T09:18:52;101787.44;;;15.51;89.23
692;BME280;70475;50.084;8.576;2023-09-30T09:21:21;101778.06;;;15.83;88.02
692;BME280;70475;50.084;8.576;2023-09-30T09:23:53;101777.06;;;15.84;86.11
692;BME280;70475;50.084;8.576;2023-09-30T09:26:26;101787.81;;;16.05;84.65
692;BME280;70475;50.084;8.576;2023-09-30T09:28:59;101789.28;;;16.28;83.46
692;BME280;70475;50.084;8.576;2023-09-30T09:31:29;101783.66;;;16.44;81.79
692;BME280;70475;50.084;8.576;2023-09-30T09:33:57;101783.75;;;16.51;78.60
692;BME280;70475;50.084;8.576;2023-09-30T09:36:39;101776.06;;;16.76;78.29
692;BME280;70475;50.084;8.576;2023-09-30T09:39:08;101775.44;;;16.74;79.40
692;BME280;70475;50.084;8.576;2023-09-30T09:41:49;101781.81;;;16.73;79.20
692;BME280;70475;50.084;8.576;2023-09-30T09:44:19;101781.44;;;17.03;78.09
692;BME280;70475;50.084;8.576;2023-09-30T09:46:49;101790.03;;;17.26;74.23
692;BME280;70475;50.084;8.576;2023-09-30T09:49:17;101781.53;;;17.23;72.83
692;BME280;70475;50.084;8.576;2023-09-30T09:51:46;101790.91;;;17.33;73.30
692;BME280;70475;50.084;8.576;2023-09-30T09:54:16;101787.56;;;17.25;71.83
692;BME280;70475;50.084;8.576;2023-09-30T09:56:44;101784.06;;;17.31;72.31
692;BME280;70475;50.084;8.576;2023-09-30T09:59:12;101780.13;;;17.33;71.70
692;BME280;70475;50.084;8.576;2023-09-30T10:01:40;101769.88;;;17.43;69.29
692;BME280;70475;50.084;8.576;2023-09-30T10:04:11;101766.50;;;17.41;69.06
692;BME280;70475;50.084;8.576;2023-09-30T10:06:42;101764.50;;;17.50;68.79
692;BME280;70475;50.084;8.576;2023-09-30T10:09:15;101750.09;;;17.77;70.65
692;BME280;70475;50.084;8.576;2023-09-30T10:11:45;101748.41;;;17.76;69.27
692;BME280;70475;50.084;8.576;2023-09-30T10:14:29;101737.22;;;17.79;68.29
692;BME280;70475;50.084;8.576;2023-09-30T10:16:59;101734.97;;;18.08;68.06
692;BME280;70475;50.084;8.576;2023-09-30T10:19:29;101725.88;;;18.09;67.42
692;BME280;70475;50.084;8.576;2023-09-30T10:22:20;101733.53;;;18.06;66.64
692;BME280;70475;50.084;8.576;2023-09-30T10:24:50;101725.44;;;17.93;65.46
692;BME280;70475;50.084;8.576;2023-09-30T10:27:35;101733.09;;;17.83;65.68
692;BME280;70475;50.084;8.576;2023-09-30T10:30:08;101733.06;;;17.70;66.04
692;BME280;70475;50.084;8.576;2023-09-30T10:33:07;101735.97;;;17.68;66.26
692;BME280;70475;50.084;8.576;2023-09-30T10:35:47;101739.31;;;17.77;63.71
692;BME280;70475;50.084;8.576;2023-09-30T10:38:37;101732.06;;;17.84;62.64
692;BME280;70475;50.084;8.576;2023-09-30T10:41:07;101730.19;;;17.91;63.50
692;BME280;70475;50.084;8.576;2023-09-30T10:43:36;101730.66;;;18.14;63.04
692;BME280;70475;50.084;8.576;2023-09-30T10:46:10;101726.91;;;18.15;64.82
692;BME280;70475;50.084;8.576;2023-09-30T10:48:52;101724.03;;;18.36;62.00
692;BME280;70475;50.084;8.576;2023-09-30T10:51:22;101719.25;;;18.38;60.43
692;BME280;70475;50.084;8.576;2023-09-30T10:53:50;101721.16;;;18.38;63.54
692;BME280;70475;50.084;8.576;2023-09-30T10:56:19;101721.75;;;18.39;58.53
692;BME280;70475;50.084;8.576;2023-09-30T10:58:48;101720.31;;;18.44;59.87
692;BME280;70475;50.084;8.576;2023-09-30T11:01:18;101719.47;;;18.63;58.25
692;BME280;70475;50.084;8.576;2023-09-30T11:03:47;101724.44;;;18.39;59.06
692;BME280;70475;50.084;8.576;2023-09-30T11:06:17;101726.06;;;18.27;57.84
692;BME280;70475;50.084;8.576;2023-09-30T11:08:51;101730.25;;;18.43;58.29
692;BME280;70475;50.084;8.576;2023-09-30T11:11:34;101724.25;;;18.41;56.12
692;BME280;70475;50.084;8.576;2023-09-30T11:14:02;101726.28;;;18.26;53.91
692;BME280;70475;50.084;8.576;2023-09-30T11:16:40;101721.97;;;18.45;55.63
692;BME280;70475;50.084;8.576;2023-09-30T11:19:08;101721.53;;;18.41;55.84
692;BME280;70475;50.084;8.576;2023-09-30T11:21:37;101728.59;;;18.55;58.25
692;BME280;70475;50.084;8.576;2023-09-30T11:24:07;101734.41;;;18.72;57.99
692;BME280;70475;50.084;8.576;2023-09-30T11:26:35;101728.94;;;18.91;56.65
692;BME280;70475;50.084;8.576;2023-09-30T11:29:06;101717.03;;;19.12;55.36
692;BME280;70475;50.084;8.576;2023-09-30T11:31:37;101728.03;;;19.10;54.22
692;BME280;70475;50.084;8.576;2023-09-30T11:34:05;101723.16;;;18.81;54.55
692;BME280;70475;50.084;8.576;2023-09-30T11:36:35;101728.34;;;18.89;57.33
692;BME280;70475;50.084;8.576;2023-09-30T11:39:03;101721.22;;;19.01;54.97
692;BME280;70475;50.084;8.576;2023-09-30T11:41:34;101720.63;;;18.99;55.70
692;BME280;70475;50.084;8.576;2023-09-30T11:44:06;101721.19;;;19.14;55.91
692;BME280;70475;50.084;8.576;2023-09-30T11:46:49;101718.41;;;19.34;54.17
692;BME280;70475;50.084;8.576;2023-09-30T11:49:27;101716.13;;;19.37;53.60
692;BME280;70475;50.084;8.576;2023-09-30T11:51:56;101718.16;;;19.48;51.50
692;BME280;70475;50.084;8.576;2023-09-30T11:54:31;101717.97;;;19.43;53.16
692;BME280;70475;50.084;8.576;2023-09-30T11:57:01;101717.97;;;19.50;52.10
692;BME280;70475;50.084;8.576;2023-09-30T11:59:29;101715.75;;;19.71;53.07
692;BME280;70475;50.084;8.576;2023-09-30T12:01:58;101718.44;;;19.71;53.27
692;BME280;70475;50.084;8.576;2023-09-30T12:04:39;101708.97;;;19.87;52.73
692;BME280;70475;50.084;8.576;2023-09-30T12:07:07;101699.00;;;19.87;52.50
692;BME280;70475;50.084;8.576;2023-09-30T12:09:35;101701.00;;;19.98;53.13
692;BME280;70475;50.084;8.576;2023-09-30T12:12:06;101703.00;;;19.78;52.35
692;BME280;70475;50.084;8.576;2023-09-30T12:14:36;101698.13;;;19.93;50.19
692;BME280;70475;50.084;8.576;2023-09-30T12:17:04;101703.66;;;20.05;49.01
692;BME280;70475;50.084;8.576;2023-09-30T12:19:31;101697.56;;;20.09;52.38
692;BME280;70475;50.084;8.576;2023-09-30T12:21:59;101685.78;;;20.28;52.04
692;BME280;70475;50.084;8.576;2023-09-30T12:24:27;101692.03;;;20.29;49.83
692;BME280;70475;50.084;8.576;2023-09-30T12:26:54;101689.88;;;20.38;46.77
692;BME280;70475;50.084;8.576;2023-09-30T12:29:23;101677.84;;;20.33;47.30
692;BME280;70475;50.084;8.576;2023-09-30T12:31:52;101682.38;;;20.40;44.67
692;BME280;70475;50.084;8.576;2023-09-30T12:34:21;101673.59;;;20.44;45.64
692;BME280;70475;50.084;8.576;2023-09-30T12:36:50;101680.06;;;20.61;46.90
692;BME280;70475;50.084;8.576;2023-09-30T12:39:18;101675.50;;;20.62;43.04
692;BME280;70475;50.084;8.576;2023-09-30T12:41:51;101682.63;;;20.74;41.06
692;BME280;70475;50.084;8.576;2023-09-30T12:44:18;101679.38;;;20.66;41.60
692;BME280;70475;50.084;8.576;2023-09-30T12:46:47;101676.00;;;20.52;42.92
692;BME280;70475;50.084;8.576;2023-09-30T12:49:15;101674.59;;;20.68;40.68
692;BME280;70475;50.084;8.576;2023-09-30T12:51:43;101683.38;;;20.63;42.48
692;BME280;70475;50.084;8.576;2023-09-30T12:54:11;101676.97;;;20.76;42.77
692;BME280;70475;50.084;8.576;2023-09-30T12:56:39;101670.97;;;20.56;45.19
692;BME280;70475;50.084;8.576;2023-09-30T12:59:07;101665.56;;;20.56;42.93
692;BME280;70475;50.084;8.576;2023-09-30T13:01:35;101672.38;;;20.15;43.99
692;BME280;70475;50.084;8.576;2023-09-30T13:04:05;101675.41;;;20.25;44.88
692;BME280;70475;50.084;8.576;2023-09-30T13:06:35;101681.53;;;20.39;44.42
692;BME280;70475;50.084;8.576;2023-09-30T13:09:03;101676.16;;;20.32;42.03
692;BME280;70475;50.084;8.576;2023-09-30T13:11:31;101682.81;;;20.37;41.63
692;BME280;70475;50.084;8.576;2023-09-30T13:14:02;101670.53;;;20.59;40.49
692;BME280;70475;50.084;8.576;2023-09-30T13:16:30;101668.25;;;20.56;42.97
692;BME280;70475;50.084;8.576;2023-09-30T13:18:58;101664.13;;;20.71;43.41